createdAt,value
2022-09-20T00:00:11.619Z,1.60
2022-09-20T00:02:37.842Z,1.90
2022-09-20T00:05:04.309Z,2.50
2022-09-20T00:07:30.581Z,1.70
2022-09-20T00:09:57.581Z,2.33
2022-09-20T00:12:23.940Z,1.75
2022-09-20T00:14:50.151Z,1.65
2022-09-20T00:17:16.360Z,2.03
2022-09-20T00:19:42.566Z,1.92
2022-09-20T00:22:08.779Z,1.65
2022-09-20T00:24:36.592Z,2.17
2022-09-20T00:27:03.345Z,1.90
2022-09-20T00:29:29.634Z,1.45
2022-09-20T00:31:55.972Z,2.35
2022-09-20T00:34:40.798Z,1.85
2022-09-20T00:37:06.996Z,2.28
2022-09-20T00:39:33.219Z,1.85
2022-09-20T00:41:59.418Z,2.20
2022-09-20T00:44:40.854Z,2.20
2022-09-20T00:47:12.191Z,1.65
2022-09-20T00:49:38.523Z,2.10
2022-09-20T00:52:04.742Z,2.08
2022-09-20T00:54:31.555Z,1.90
2022-09-20T00:56:57.818Z,1.83
2022-09-20T00:59:26.793Z,1.30
2022-09-20T01:01:56.127Z,1.85
2022-09-20T01:04:23.858Z,1.23
2022-09-20T01:06:52.377Z,1.90
2022-09-20T01:09:18.614Z,2.15
2022-09-20T01:11:45.380Z,1.48
2022-09-20T01:14:13.152Z,1.40
2022-09-20T01:16:39.550Z,1.70
2022-09-20T01:19:13.588Z,1.77
2022-09-20T01:21:39.878Z,1.20
2022-09-20T01:24:25.104Z,1.77
2022-09-20T01:27:10.078Z,1.67
2022-09-20T01:29:36.271Z,1.42
2022-09-20T01:32:03.690Z,1.70
2022-09-20T01:34:37.386Z,1.60
2022-09-20T01:37:12.048Z,1.77
2022-09-20T01:39:44.135Z,1.60
2022-09-20T01:42:14.139Z,1.77
2022-09-20T01:44:46.210Z,2.33
2022-09-20T01:47:21.258Z,1.20
2022-09-20T01:49:57.086Z,1.48
2022-09-20T01:52:29.073Z,1.98
2022-09-20T01:54:57.953Z,1.80
2022-09-20T01:57:37.209Z,1.52
2022-09-20T02:00:06.222Z,1.52
2022-09-20T02:02:40.461Z,1.60
2022-09-20T02:05:18.670Z,1.92
2022-09-20T02:07:45.191Z,1.48
2022-09-20T02:10:29.566Z,2.15
2022-09-20T02:13:00.775Z,1.60
2022-09-20T02:15:38.970Z,1.35
2022-09-20T02:18:17.349Z,1.40
2022-09-20T02:20:52.567Z,2.25
2022-09-20T02:23:33.431Z,1.40
2022-09-20T02:26:19.288Z,2.03
2022-09-20T02:28:53.515Z,1.42
2022-09-20T02:31:28.844Z,2.00
2022-09-20T02:33:55.295Z,1.35
2022-09-20T02:36:30.321Z,1.80
2022-09-20T02:38:59.581Z,1.60
2022-09-20T02:41:25.767Z,1.58
2022-09-20T02:44:09.447Z,1.45
2022-09-20T02:47:01.927Z,1.90
2022-09-20T02:49:33.399Z,1.88
2022-09-20T02:52:08.651Z,1.95
2022-09-20T02:54:46.751Z,1.63
2022-09-20T02:57:28.506Z,1.80
2022-09-20T03:00:03.770Z,1.55
2022-09-20T03:02:51.279Z,2.60
2022-09-20T03:05:17.555Z,1.85
2022-09-20T03:07:58.694Z,1.85
2022-09-20T03:10:35.969Z,1.90
2022-09-20T03:13:20.623Z,2.38
2022-09-20T03:16:10.248Z,2.03
2022-09-20T03:18:46.847Z,2.03
2022-09-20T03:21:13.319Z,1.70
2022-09-20T03:24:01.344Z,1.98
2022-09-20T03:26:45.722Z,1.75
2022-09-20T03:29:20.155Z,1.40
2022-09-20T03:32:01.076Z,2.15
2022-09-20T03:34:37.942Z,1.63
2022-09-20T03:37:10.262Z,1.83
2022-09-20T03:39:39.472Z,1.55
2022-09-20T03:42:08.507Z,1.95
2022-09-20T03:44:34.683Z,2.15
2022-09-20T03:47:11.019Z,1.63
2022-09-20T03:49:53.059Z,1.88
2022-09-20T03:52:39.133Z,2.05
2022-09-20T03:55:08.166Z,1.55
2022-09-20T03:57:40.178Z,2.15
2022-09-20T04:00:09.205Z,1.50
2022-09-20T04:02:47.813Z,2.03
2022-09-20T04:05:16.653Z,1.58
2022-09-20T04:07:51.898Z,2.80
2022-09-20T04:10:26.919Z,1.40
2022-09-20T04:13:15.466Z,1.58
2022-09-20T04:16:17.348Z,2.08
2022-09-20T04:18:46.932Z,2.30
2022-09-20T04:21:31.815Z,1.80
2022-09-20T04:24:05.675Z,2.17
2022-09-20T04:26:34.759Z,1.88
2022-09-20T04:29:01.878Z,1.70
2022-09-20T04:31:34.273Z,2.20
2022-09-20T04:34:01.843Z,2.15
2022-09-20T04:36:33.755Z,2.30
2022-09-20T04:39:02.043Z,2.10
2022-09-20T04:41:51.173Z,2.47
2022-09-20T04:44:35.738Z,2.13
2022-09-20T04:47:37.279Z,2.08
2022-09-20T04:50:22.195Z,2.30
2022-09-20T04:53:06.452Z,2.50
2022-09-20T04:55:32.663Z,1.80
2022-09-20T04:58:10.848Z,1.92
2022-09-20T05:00:53.891Z,1.80
2022-09-20T05:03:40.159Z,1.98
2022-09-20T05:06:06.339Z,1.95
2022-09-20T05:08:54.245Z,2.38
2022-09-20T05:11:46.894Z,1.85
2022-09-20T05:14:34.719Z,2.40
2022-09-20T05:17:27.062Z,2.80
2022-09-20T05:20:14.123Z,2.38
2022-09-20T05:22:40.322Z,1.80
2022-09-20T05:25:15.031Z,2.10
2022-09-20T05:27:56.999Z,2.15
2022-09-20T05:30:31.203Z,2.03
2022-09-20T05:33:10.151Z,2.88
2022-09-20T05:35:48.635Z,2.40
2022-09-20T05:38:36.151Z,2.22
2022-09-20T05:41:18.826Z,2.80
2022-09-20T05:43:58.380Z,2.63
2022-09-20T05:46:24.575Z,3.05
2022-09-20T05:49:09.317Z,2.60
2022-09-20T05:51:41.118Z,2.78
2022-09-20T05:54:07.317Z,2.72
2022-09-20T05:56:52.749Z,2.08
2022-09-20T05:59:23.622Z,2.22
2022-09-20T06:01:50.900Z,2.60
2022-09-20T06:04:23.401Z,2.90
2022-09-20T06:07:04.950Z,2.58
2022-09-20T06:09:42.855Z,2.55
2022-09-20T06:12:17.960Z,2.90
2022-09-20T06:15:11.614Z,3.08
2022-09-20T06:17:46.489Z,2.90
2022-09-20T06:20:24.613Z,2.60
2022-09-20T06:22:58.161Z,2.92
2022-09-20T06:25:42.770Z,2.35
2022-09-20T06:28:19.160Z,2.80
2022-09-20T06:30:47.726Z,2.80
2022-09-20T06:33:18.179Z,3.25
2022-09-20T06:35:47.567Z,3.17
2022-09-20T06:38:51.144Z,2.95
2022-09-20T06:41:29.813Z,3.10
2022-09-20T06:43:59.028Z,2.55
2022-09-20T06:46:29.128Z,2.63
2022-09-20T06:48:55.911Z,2.60
2022-09-20T06:51:22.724Z,3.20
2022-09-20T06:53:49.126Z,2.88
2022-09-20T06:56:17.554Z,3.13
2022-09-20T06:58:43.809Z,2.80
2022-09-20T07:01:10.073Z,2.88
2022-09-20T07:03:37.105Z,2.58
2022-09-20T07:06:04.322Z,2.30
2022-09-20T07:08:30.537Z,2.40
2022-09-20T07:10:56.737Z,2.33
2022-09-20T07:13:23.992Z,3.08
2022-09-20T07:15:51.114Z,2.75
2022-09-20T07:18:17.326Z,2.70
2022-09-20T07:20:44.622Z,3.08
2022-09-20T07:23:10.848Z,2.80
2022-09-20T07:25:37.210Z,2.80
2022-09-20T07:28:03.435Z,2.65
2022-09-20T07:30:29.647Z,2.63
2022-09-20T07:32:55.859Z,3.22
2022-09-20T07:35:22.303Z,3.30
2022-09-20T07:37:48.502Z,3.00
2022-09-20T07:40:15.682Z,2.83
2022-09-20T07:42:42.055Z,2.78
2022-09-20T07:45:08.593Z,2.53
2022-09-20T07:47:35.486Z,2.58
2022-09-20T07:50:02.476Z,2.95
2022-09-20T07:52:28.975Z,2.53
2022-09-20T07:54:55.998Z,2.55
2022-09-20T07:57:22.206Z,2.33
2022-09-20T07:59:48.529Z,2.58
2022-09-20T08:02:15.359Z,2.13
2022-09-20T08:04:41.613Z,1.52
2022-09-20T08:07:07.977Z,1.35
2022-09-20T08:09:34.217Z,2.00
2022-09-20T08:14:05.268Z,1.48
2022-09-20T08:14:47.705Z,0.90
2022-09-20T08:17:13.907Z,1.13
2022-09-20T08:19:40.178Z,1.05
2022-09-20T08:22:06.491Z,1.10
2022-09-20T08:24:32.994Z,0.98
2022-09-20T08:26:59.223Z,1.20
2022-09-20T08:29:25.479Z,1.08
2022-09-20T08:31:53.002Z,0.88
2022-09-20T08:34:19.244Z,1.02
2022-09-20T08:36:51.700Z,1.80
2022-09-20T08:42:23.502Z,1.10
2022-09-20T08:45:00.008Z,1.88
2022-09-20T08:47:31.444Z,1.58
2022-09-20T08:49:57.908Z,1.30
2022-09-20T08:52:39.912Z,1.48
2022-09-20T08:55:16.736Z,1.10
2022-09-20T08:57:43.730Z,1.17
2022-09-20T09:00:13.866Z,1.38
2022-09-20T09:02:41.535Z,1.13
2022-09-20T09:05:18.198Z,1.20
2022-09-20T09:07:44.415Z,1.38
2022-09-20T09:10:10.674Z,1.55
2022-09-20T09:12:36.972Z,1.45
2022-09-20T09:15:21.340Z,1.73
2022-09-20T09:17:47.755Z,1.15
2022-09-20T09:20:13.956Z,1.27
2022-09-20T09:22:45.075Z,1.38
2022-09-20T09:25:17.049Z,1.02
2022-09-20T09:27:50.833Z,1.00
2022-09-20T09:30:21.934Z,1.52
2022-09-20T09:32:48.245Z,1.40
2022-09-20T09:35:25.926Z,0.95
2022-09-20T09:37:59.658Z,1.25
2022-09-20T09:40:26.552Z,1.20
2022-09-20T09:42:57.692Z,0.93
2022-09-20T09:45:28.702Z,1.63
2022-09-20T09:47:55.850Z,1.02
2022-09-20T09:50:26.786Z,1.25
2022-09-20T09:53:13.428Z,1.55
2022-09-20T09:55:53.108Z,0.98
2022-09-20T09:58:20.696Z,0.77
2022-09-20T10:00:47.237Z,0.75
2022-09-20T10:03:13.530Z,0.88
2022-09-20T10:05:58.325Z,1.05
2022-09-20T10:08:39.755Z,1.15
2022-09-20T10:11:24.555Z,1.05
2022-09-20T10:14:03.498Z,1.20
2022-09-20T10:16:47.983Z,1.33
2022-09-20T10:19:21.984Z,0.73
2022-09-20T10:21:51.687Z,0.60
2022-09-20T10:24:17.935Z,0.88
2022-09-20T10:26:53.326Z,0.93
2022-09-20T10:29:39.047Z,0.85
2022-09-20T10:32:05.510Z,0.50
2022-09-20T10:34:56.163Z,0.85
2022-09-20T10:39:52.804Z,1.08
2022-09-20T10:43:15.617Z,1.00
2022-09-20T10:46:14.037Z,0.40
2022-09-20T10:48:42.544Z,0.55
2022-09-20T10:51:21.671Z,0.70
2022-09-20T10:53:54.782Z,0.93
2022-09-20T10:56:36.063Z,0.88
2022-09-20T10:59:11.358Z,1.10
2022-09-20T11:01:43.275Z,0.80
2022-09-20T11:04:28.058Z,1.60
2022-09-20T11:07:04.327Z,1.13
2022-09-20T11:09:34.992Z,1.48
2022-09-20T11:12:19.542Z,1.25
2022-09-20T11:14:49.910Z,0.88
2022-09-20T11:17:31.851Z,1.85
2022-09-20T11:20:06.144Z,0.88
2022-09-20T11:22:49.005Z,1.25
2022-09-20T11:25:21.513Z,1.50
2022-09-20T11:27:48.591Z,0.80
2022-09-20T11:30:16.458Z,1.48
2022-09-20T11:32:42.663Z,1.08
2022-09-20T11:35:11.618Z,1.13
2022-09-20T11:37:41.095Z,1.40
2022-09-20T11:40:22.454Z,1.40
2022-09-20T11:42:49.719Z,1.40
2022-09-20T11:45:15.938Z,1.42
2022-09-20T11:47:55.088Z,1.30
2022-09-20T11:50:43.069Z,1.27
2022-09-20T11:53:21.955Z,1.23
2022-09-20T11:55:59.013Z,1.30
2022-09-20T11:58:27.285Z,1.35
2022-09-20T12:00:55.428Z,1.13
2022-09-20T12:03:36.149Z,0.98
2022-09-20T12:06:04.135Z,1.38
2022-09-20T12:08:33.124Z,1.27
2022-09-20T12:11:04.268Z,1.02
2022-09-20T12:13:31.886Z,1.42
2022-09-20T12:16:03.491Z,1.17
2022-09-20T12:18:32.882Z,1.17
2022-09-20T12:20:59.199Z,1.23
2022-09-20T12:23:38.151Z,1.30
2022-09-20T12:26:06.502Z,1.00
2022-09-20T12:28:36.712Z,1.23
2022-09-20T12:31:21.589Z,1.00
2022-09-20T12:34:03.091Z,0.98
2022-09-20T12:36:32.306Z,1.40
2022-09-20T12:39:17.530Z,0.93
2022-09-20T12:41:48.188Z,1.17
2022-09-20T12:46:42.501Z,1.25
2022-09-20T12:49:37.828Z,2.03
2022-09-20T12:52:22.480Z,1.30
2022-09-20T12:54:50.815Z,1.20
2022-09-20T12:57:18.865Z,1.50
2022-09-20T12:59:55.154Z,1.13
2022-09-20T13:02:40.986Z,1.27
2022-09-20T13:05:25.702Z,1.00
2022-09-20T13:08:00.205Z,2.00
2022-09-20T13:10:29.166Z,0.80
2022-09-20T13:12:58.286Z,1.25
2022-09-20T13:15:24.846Z,1.25
2022-09-20T13:17:52.719Z,1.40
2022-09-20T13:20:26.189Z,1.50
2022-09-20T13:22:55.968Z,1.50
2022-09-20T13:25:24.775Z,1.30
2022-09-20T13:27:57.194Z,1.52
2022-09-20T13:30:29.709Z,1.38
2022-09-20T13:32:55.919Z,1.20
2022-09-20T13:35:23.955Z,1.30
2022-09-20T13:37:50.176Z,1.30
2022-09-20T13:40:18.359Z,1.60
2022-09-20T13:42:45.498Z,1.10
2022-09-20T13:45:15.030Z,1.10
2022-09-20T13:47:43.299Z,1.77
2022-09-20T13:50:17.803Z,1.30
2022-09-20T13:52:48.583Z,1.00
2022-09-20T13:55:21.767Z,1.38
2022-09-20T13:57:48.268Z,1.58
2022-09-20T14:00:15.402Z,1.45
2022-09-20T14:02:42.192Z,1.50
2022-09-20T14:05:14.980Z,1.23
2022-09-20T14:07:43.658Z,1.40
2022-09-20T14:10:30.963Z,1.77
2022-09-20T14:12:58.819Z,1.10
2022-09-20T14:15:26.418Z,0.90
2022-09-20T14:17:53.323Z,1.00
2022-09-20T14:20:19.627Z,1.20
2022-09-20T14:22:45.926Z,1.60
2022-09-20T14:25:12.352Z,1.15
2022-09-20T14:27:38.799Z,0.98
2022-09-20T14:30:05.814Z,0.90
2022-09-20T14:32:52.304Z,1.42
2022-09-20T14:35:20.219Z,1.23
2022-09-20T14:37:50.492Z,0.85
2022-09-20T14:40:19.292Z,1.25
2022-09-20T14:42:46.472Z,1.15
2022-09-20T14:45:23.694Z,1.25
2022-09-20T14:47:53.225Z,1.90
2022-09-20T14:50:31.416Z,1.25
2022-09-20T14:53:10.672Z,1.13
2022-09-20T14:55:37.930Z,1.33
2022-09-20T14:58:09.783Z,0.80
2022-09-20T15:00:50.479Z,1.35
2022-09-20T15:03:20.410Z,1.00
2022-09-20T15:05:48.055Z,1.33
2022-09-20T15:08:15.560Z,1.20
2022-09-20T15:10:41.772Z,1.08
2022-09-20T15:13:09.613Z,1.88
2022-09-20T15:15:36.042Z,1.20
2022-09-20T15:18:03.050Z,1.20
2022-09-20T15:20:29.251Z,1.27
2022-09-20T15:22:57.885Z,1.13
2022-09-20T15:25:24.520Z,1.63
2022-09-20T15:27:51.710Z,1.15
2022-09-20T15:30:19.676Z,1.30
2022-09-20T15:32:46.440Z,1.10
2022-09-20T15:35:13.956Z,1.10
2022-09-20T15:37:40.331Z,1.00
2022-09-20T15:40:08.027Z,1.20
2022-09-20T15:42:37.868Z,1.65
2022-09-20T15:45:13.304Z,0.85
2022-09-20T15:47:39.829Z,1.02
2022-09-20T15:50:08.319Z,1.80
2022-09-20T15:52:36.014Z,1.15
2022-09-20T15:55:03.741Z,1.33
2022-09-20T15:57:30.642Z,1.30
2022-09-20T15:59:58.616Z,1.20
2022-09-20T16:02:25.237Z,1.10
2022-09-20T16:04:54.612Z,1.05
2022-09-20T16:07:25.447Z,1.45
2022-09-20T16:09:52.518Z,1.27
2022-09-20T16:12:19.683Z,1.30
2022-09-20T16:14:45.898Z,1.40
2022-09-20T16:17:12.239Z,0.93
2022-09-20T16:19:38.526Z,1.20
2022-09-20T16:22:04.742Z,1.00
2022-09-20T16:24:32.089Z,0.88
2022-09-20T16:26:58.633Z,1.08
2022-09-20T16:29:25.819Z,1.05
2022-09-20T16:31:53.407Z,1.58
2022-09-20T16:34:20.933Z,1.45
2022-09-20T16:36:48.811Z,1.73
2022-09-20T16:39:15.902Z,1.02
2022-09-20T16:41:42.650Z,1.38
2022-09-20T16:44:09.255Z,1.45
2022-09-20T16:46:37.209Z,1.10
2022-09-20T16:49:04.740Z,1.10
2022-09-20T16:51:33.193Z,1.17
2022-09-20T16:54:17.530Z,1.45
2022-09-20T16:56:45.207Z,1.67
2022-09-20T16:59:12.404Z,1.23
2022-09-20T17:01:39.657Z,0.88
2022-09-20T17:04:06.569Z,1.10
2022-09-20T17:06:34.361Z,1.23
2022-09-20T17:09:00.882Z,1.30
2022-09-20T17:11:31.240Z,1.45
2022-09-20T17:13:57.572Z,1.80
2022-09-20T17:16:25.453Z,1.27
2022-09-20T17:18:56.187Z,1.20
2022-09-20T17:21:22.670Z,1.33
2022-09-20T17:23:52.140Z,0.93
2022-09-20T17:26:19.915Z,1.23
2022-09-20T17:28:47.393Z,1.20
2022-09-20T17:31:14.838Z,1.30
2022-09-20T17:33:41.378Z,1.40
2022-09-20T17:36:09.731Z,1.38
2022-09-20T17:38:36.583Z,1.38
2022-09-20T17:41:04.380Z,1.00
2022-09-20T17:43:31.188Z,1.17
2022-09-20T17:46:04.985Z,1.85
2022-09-20T17:48:34.044Z,1.75
2022-09-20T17:51:00.982Z,1.70
2022-09-20T17:53:27.195Z,1.35
2022-09-20T17:55:56.227Z,1.25
2022-09-20T17:58:22.928Z,1.42
2022-09-20T18:00:49.633Z,1.88
2022-09-20T18:03:16.541Z,2.30
2022-09-20T18:05:42.874Z,2.20
2022-09-20T18:08:09.174Z,1.70
2022-09-20T18:10:35.376Z,1.10
2022-09-20T18:13:01.583Z,1.55
2022-09-20T18:15:27.788Z,1.20
2022-09-20T18:17:54.671Z,1.20
2022-09-20T18:20:20.902Z,1.15
2022-09-20T18:22:50.020Z,1.80
2022-09-20T18:25:16.285Z,1.27
2022-09-20T18:27:43.237Z,1.33
2022-09-20T18:30:09.726Z,1.15
2022-09-20T18:32:36.056Z,1.10
2022-09-20T18:35:02.663Z,1.15
2022-09-20T18:37:30.576Z,1.17
2022-09-20T18:39:56.786Z,1.52
2022-09-20T18:42:22.986Z,1.40
2022-09-20T18:44:49.486Z,1.30
2022-09-20T18:47:15.944Z,1.80
2022-09-20T18:49:42.170Z,1.05
2022-09-20T18:52:10.658Z,1.92
2022-09-20T18:54:37.266Z,1.70
2022-09-20T18:57:03.639Z,1.60
2022-09-20T18:59:30.015Z,1.40
2022-09-20T19:01:56.381Z,1.88
2022-09-20T19:04:22.737Z,1.25
2022-09-20T19:06:55.404Z,1.30
2022-09-20T19:09:28.877Z,1.20
2022-09-20T19:12:02.755Z,1.38
2022-09-20T19:14:33.462Z,1.60
2022-09-20T19:17:01.124Z,1.23
2022-09-20T19:19:30.656Z,1.15
2022-09-20T19:21:58.678Z,0.93
2022-09-20T19:24:31.368Z,1.27
2022-09-20T19:26:57.612Z,1.30
2022-09-20T19:29:25.623Z,1.08
2022-09-20T19:31:54.230Z,1.00
2022-09-20T19:34:24.390Z,1.15
2022-09-20T19:36:53.386Z,1.08
2022-09-20T19:39:38.906Z,1.02
2022-09-20T19:42:08.134Z,1.27
2022-09-20T19:44:53.443Z,1.33
2022-09-20T19:47:25.526Z,1.30
2022-09-20T19:49:54.171Z,1.35
2022-09-20T19:52:21.006Z,1.77
2022-09-20T19:54:47.647Z,1.30
2022-09-20T19:57:34.109Z,1.65
2022-09-20T20:00:00.442Z,1.30
2022-09-20T20:02:26.844Z,2.10
2022-09-20T20:04:53.170Z,2.00
2022-09-20T20:07:32.470Z,1.67
2022-09-20T20:10:03.230Z,2.10
2022-09-20T20:12:55.618Z,1.70
2022-09-20T20:15:40.342Z,1.33
2022-09-20T20:18:16.690Z,1.30
2022-09-20T20:20:47.459Z,1.85
2022-09-20T20:25:39.790Z,1.98
2022-09-20T20:28:05.999Z,1.30
2022-09-20T20:30:32.207Z,1.00
2022-09-20T20:32:58.463Z,1.70
2022-09-20T20:35:25.752Z,1.38
2022-09-20T20:37:52.418Z,1.00
2022-09-20T20:40:18.838Z,1.77
2022-09-20T20:42:45.439Z,1.00
2022-09-20T20:45:11.694Z,1.15
2022-09-20T20:47:39.813Z,1.60
2022-09-20T20:50:06.223Z,1.33
2022-09-20T20:52:32.514Z,1.25
2022-09-20T20:55:00.016Z,1.27
2022-09-20T20:57:26.522Z,1.08
2022-09-20T20:59:52.915Z,1.13
2022-09-20T21:02:19.636Z,2.08
2022-09-20T21:04:46.803Z,1.50
2022-09-20T21:07:12.991Z,1.67
2022-09-20T21:09:39.678Z,1.52
2022-09-20T21:12:06.083Z,1.30
2022-09-20T21:14:34.446Z,1.27
2022-09-20T21:17:01.799Z,0.98
2022-09-20T21:19:28.044Z,1.00
2022-09-20T21:21:54.266Z,1.70
2022-09-20T21:24:20.727Z,1.42
2022-09-20T21:26:47.445Z,1.23
2022-09-20T21:29:15.084Z,1.63
2022-09-20T21:31:42.413Z,1.63
2022-09-20T21:34:09.843Z,1.50
2022-09-20T21:36:36.946Z,1.50
2022-09-20T21:39:03.572Z,1.73
2022-09-20T21:41:30.860Z,2.08
2022-09-20T21:43:59.845Z,1.75
2022-09-20T21:46:30.007Z,1.92
2022-09-20T21:48:56.967Z,1.75
2022-09-20T21:51:23.770Z,1.50
2022-09-20T21:53:52.503Z,1.63
2022-09-20T21:56:18.698Z,1.60
2022-09-20T21:58:45.902Z,1.63
2022-09-20T22:01:14.586Z,1.35
2022-09-20T22:03:45.276Z,1.40
2022-09-20T22:06:12.645Z,1.27
2022-09-20T22:08:41.296Z,1.50
2022-09-20T22:11:11.192Z,1.42
2022-09-20T22:13:41.366Z,1.95
2022-09-20T22:16:09.085Z,1.23
2022-09-20T22:18:37.267Z,1.58
2022-09-20T22:21:08.101Z,1.30
2022-09-20T22:23:35.173Z,1.55
2022-09-20T22:26:10.447Z,1.30
2022-09-20T22:28:37.142Z,1.58
2022-09-20T22:31:04.481Z,1.52
2022-09-20T22:33:31.268Z,1.33
2022-09-20T22:35:57.578Z,1.38
2022-09-20T22:38:23.882Z,1.83
2022-09-20T22:40:54.102Z,1.65
2022-09-20T22:43:20.517Z,1.73
2022-09-20T22:45:46.875Z,1.58
2022-09-20T22:48:13.214Z,1.83
2022-09-20T22:50:39.528Z,1.65
2022-09-20T22:53:05.837Z,1.77
2022-09-20T22:55:32.141Z,2.50
2022-09-20T22:57:58.461Z,1.83
2022-09-20T23:00:24.756Z,2.28
2022-09-20T23:02:51.145Z,1.50
2022-09-20T23:05:18.144Z,1.80
2022-09-20T23:07:47.960Z,1.67
2022-09-20T23:10:14.350Z,1.40
2022-09-20T23:12:40.714Z,1.95
2022-09-20T23:15:07.449Z,1.85
2022-09-20T23:17:33.779Z,1.48
2022-09-20T23:20:00.084Z,1.70
2022-09-20T23:22:26.401Z,1.60
2022-09-20T23:24:52.741Z,1.67
2022-09-20T23:27:19.255Z,1.70
2022-09-20T23:29:45.549Z,1.55
2022-09-20T23:32:11.848Z,1.70
2022-09-20T23:34:38.151Z,1.77
2022-09-20T23:37:04.474Z,1.40
2022-09-20T23:39:30.769Z,1.65
2022-09-20T23:41:57.064Z,1.55
2022-09-20T23:44:23.441Z,2.08
2022-09-20T23:46:49.754Z,1.50
2022-09-20T23:49:16.155Z,1.77
2022-09-20T23:51:42.444Z,1.65
2022-09-20T23:54:08.829Z,1.42
2022-09-20T23:56:35.857Z,1.70
2022-09-20T23:59:02.207Z,1.58
